createdAt,value
2022-09-15T00:02:25.225Z,88.25
2022-09-15T00:04:51.820Z,88.69
2022-09-15T00:07:18.394Z,88.58
2022-09-15T00:09:44.794Z,88.77
2022-09-15T00:12:11.256Z,88.78
2022-09-15T00:14:37.699Z,89.31
2022-09-15T00:17:04.314Z,89.02
2022-09-15T00:19:30.753Z,89.22
2022-09-15T00:21:57.249Z,89.26
2022-09-15T00:24:23.661Z,89.31
2022-09-15T00:26:50.113Z,89.25
2022-09-15T00:29:16.518Z,89.53
2022-09-15T00:31:42.991Z,89.77
2022-09-15T00:34:12.661Z,89.70
2022-09-15T00:36:39.170Z,89.83
2022-09-15T00:39:06.105Z,90.10
2022-09-15T00:41:32.690Z,89.81
2022-09-15T00:44:00.426Z,90.27
2022-09-15T00:46:34.271Z,89.96
2022-09-15T00:49:13.335Z,90.06
2022-09-15T00:51:52.053Z,89.82
2022-09-15T00:54:38.666Z,89.79
2022-09-15T00:57:14.564Z,90.07
2022-09-15T00:59:42.704Z,90.02
2022-09-15T01:02:19.749Z,89.96
2022-09-15T01:04:46.681Z,90.24
2022-09-15T01:07:17.106Z,90.36
2022-09-15T01:09:54.348Z,90.24
2022-09-15T01:12:23.952Z,90.20
2022-09-15T01:14:50.404Z,89.96
2022-09-15T01:17:47.808Z,90.20
2022-09-15T01:20:35.147Z,90.02
2022-09-15T01:23:44.603Z,90.44
2022-09-15T01:26:20.215Z,90.28
2022-09-15T01:28:55.822Z,90.17
2022-09-15T01:31:33.256Z,91.04
2022-09-15T01:34:09.290Z,91.18
2022-09-15T01:36:41.704Z,91.46
2022-09-15T01:39:16.885Z,91.10
2022-09-15T01:41:46.798Z,90.55
2022-09-15T01:44:19.121Z,90.46
2022-09-15T01:46:48.642Z,90.68
2022-09-15T01:49:19.416Z,90.41
2022-09-15T01:51:48.342Z,90.19
2022-09-15T01:54:16.561Z,90.85
2022-09-15T01:56:43.892Z,91.09
2022-09-15T01:59:11.026Z,90.49
2022-09-15T02:01:47.255Z,90.08
2022-09-15T02:04:22.340Z,90.32
2022-09-15T02:06:53.291Z,90.49
2022-09-15T02:09:28.016Z,90.24
2022-09-15T02:12:03.230Z,90.30
2022-09-15T02:14:56.312Z,90.39
2022-09-15T02:17:29.100Z,90.64
2022-09-15T02:20:10.295Z,90.21
2022-09-15T02:22:40.190Z,90.74
2022-09-15T02:25:28.911Z,90.41
2022-09-15T02:28:01.297Z,90.79
2022-09-15T02:30:31.687Z,90.75
2022-09-15T02:33:02.752Z,90.82
2022-09-15T02:35:32.495Z,91.42
2022-09-15T02:38:00.308Z,91.25
2022-09-15T02:40:28.242Z,91.49
2022-09-15T02:43:03.455Z,91.53
2022-09-15T02:45:31.704Z,91.54
2022-09-15T02:47:58.834Z,91.70
2022-09-15T02:50:26.669Z,91.46
2022-09-15T02:52:56.017Z,91.27
2022-09-15T02:55:23.358Z,91.22
2022-09-15T02:57:49.793Z,91.47
2022-09-15T03:00:17.486Z,91.29
2022-09-15T03:02:47.178Z,91.41
2022-09-15T03:05:14.808Z,91.73
2022-09-15T03:07:41.441Z,91.29
2022-09-15T03:10:09.623Z,91.65
2022-09-15T03:12:41.053Z,91.41
2022-09-15T03:15:09.266Z,91.42
2022-09-15T03:17:41.683Z,91.08
2022-09-15T03:20:10.496Z,91.13
2022-09-15T03:22:37.322Z,91.16
2022-09-15T03:25:05.549Z,91.31
2022-09-15T03:27:32.542Z,91.27
2022-09-15T03:29:59.120Z,90.88
2022-09-15T03:32:25.999Z,90.90
2022-09-15T03:34:57.723Z,91.13
2022-09-15T03:37:24.856Z,90.80
2022-09-15T03:39:51.317Z,90.64
2022-09-15T03:42:17.782Z,90.94
2022-09-15T03:44:44.193Z,90.30
2022-09-15T03:47:10.779Z,90.67
2022-09-15T03:49:37.198Z,90.78
2022-09-15T03:52:03.658Z,90.60
2022-09-15T03:54:30.464Z,90.96
2022-09-15T03:56:56.895Z,90.42
2022-09-15T03:59:23.692Z,90.99
2022-09-15T04:01:50.950Z,90.65
2022-09-15T04:04:17.524Z,90.59
2022-09-15T04:06:44.708Z,90.32
2022-09-15T04:09:11.637Z,90.27
2022-09-15T04:11:39.493Z,89.79
2022-09-15T04:14:05.896Z,89.68
2022-09-15T04:16:32.446Z,89.62
2022-09-15T04:18:58.877Z,89.39
2022-09-15T04:21:26.746Z,89.43
2022-09-15T04:23:54.118Z,89.37
2022-09-15T04:26:31.389Z,89.23
2022-09-15T04:29:03.061Z,89.14
2022-09-15T04:31:30.700Z,88.88
2022-09-15T04:33:57.220Z,88.44
2022-09-15T04:36:26.113Z,88.84
2022-09-15T04:38:53.083Z,88.58
2022-09-15T04:41:20.032Z,89.09
2022-09-15T04:43:47.137Z,89.03
2022-09-15T04:46:15.113Z,88.63
2022-09-15T04:48:42.045Z,88.61
2022-09-15T04:51:12.147Z,88.74
2022-09-15T04:53:38.793Z,88.27
2022-09-15T04:56:11.292Z,88.28
2022-09-15T04:58:43.662Z,88.30
2022-09-15T05:01:21.911Z,87.87
2022-09-15T05:03:49.059Z,88.16
2022-09-15T05:06:17.780Z,87.62
2022-09-15T05:08:48.120Z,87.04
2022-09-15T05:11:15.416Z,86.92
2022-09-15T05:13:41.906Z,86.92
2022-09-15T05:16:14.275Z,86.59
2022-09-15T05:18:42.048Z,86.46
2022-09-15T05:21:10.213Z,86.79
2022-09-15T05:23:37.517Z,86.35
2022-09-15T05:26:07.639Z,86.11
2022-09-15T05:28:36.357Z,86.49
2022-09-15T05:31:09.141Z,86.46
2022-09-15T05:33:36.073Z,85.65
2022-09-15T05:36:03.024Z,85.82
2022-09-15T05:38:31.028Z,85.26
2022-09-15T05:41:08.665Z,85.44
2022-09-15T05:43:36.579Z,85.10
2022-09-15T05:46:04.536Z,83.86
2022-09-15T05:48:31.398Z,83.03
2022-09-15T05:50:58.291Z,82.28
2022-09-15T05:53:25.807Z,83.00
2022-09-15T05:55:59.750Z,82.22
2022-09-15T05:58:26.857Z,82.70
2022-09-15T06:00:54.556Z,81.98
2022-09-15T06:03:22.035Z,82.56
2022-09-15T06:05:48.712Z,82.28
2022-09-15T06:08:15.763Z,82.28
2022-09-15T06:10:42.341Z,82.14
2022-09-15T06:13:08.940Z,81.48
2022-09-15T06:15:35.394Z,81.37
2022-09-15T06:18:01.820Z,80.96
2022-09-15T06:20:28.230Z,80.24
2022-09-15T06:22:56.116Z,80.05
2022-09-15T06:25:22.587Z,80.80
2022-09-15T06:27:49.846Z,80.17
2022-09-15T06:30:17.785Z,79.65
2022-09-15T06:32:48.077Z,80.67
2022-09-15T06:35:15.316Z,81.05
2022-09-15T06:37:41.778Z,79.59
2022-09-15T06:40:08.872Z,80.13
2022-09-15T06:42:40.308Z,80.47
2022-09-15T06:45:07.180Z,79.85
2022-09-15T06:47:34.111Z,79.88
2022-09-15T06:50:01.082Z,79.70
2022-09-15T06:52:27.726Z,80.62
2022-09-15T06:54:54.226Z,80.03
2022-09-15T06:57:20.618Z,80.15
2022-09-15T06:59:47.062Z,80.14
2022-09-15T07:02:13.710Z,79.56
2022-09-15T07:04:40.252Z,79.55
2022-09-15T07:07:06.681Z,79.67
2022-09-15T07:09:33.145Z,79.30
2022-09-15T07:11:59.609Z,78.92
2022-09-15T07:14:26.033Z,79.45
2022-09-15T07:16:52.461Z,79.08
2022-09-15T07:19:18.878Z,78.73
2022-09-15T07:21:45.299Z,78.38
2022-09-15T07:24:12.728Z,78.19
2022-09-15T07:26:39.165Z,78.66
2022-09-15T07:29:06.914Z,78.49
2022-09-15T07:31:36.281Z,79.50
2022-09-15T07:34:03.508Z,78.88
2022-09-15T07:36:30.792Z,79.08
2022-09-15T07:38:57.623Z,79.25
2022-09-15T07:41:28.182Z,79.63
2022-09-15T07:43:56.870Z,77.82
2022-09-15T07:46:25.224Z,77.46
2022-09-15T07:48:56.195Z,77.11
2022-09-15T07:51:23.577Z,76.62
2022-09-15T07:53:50.903Z,76.70
2022-09-15T07:56:18.662Z,76.29
2022-09-15T07:58:46.422Z,77.14
2022-09-15T08:01:14.770Z,74.82
2022-09-15T08:03:42.759Z,77.13
2022-09-15T08:06:10.273Z,74.58
2022-09-15T08:08:38.755Z,75.20
2022-09-15T08:11:09.801Z,73.74
2022-09-15T08:13:36.687Z,74.74
2022-09-15T08:16:12.527Z,74.38
2022-09-15T08:18:41.848Z,74.06
2022-09-15T08:21:11.414Z,73.63
2022-09-15T08:23:38.308Z,73.28
2022-09-15T08:26:13.870Z,73.43
2022-09-15T08:28:42.112Z,72.69
2022-09-15T08:31:12.454Z,73.18
2022-09-15T08:33:44.588Z,71.15
2022-09-15T08:36:12.724Z,71.58
2022-09-15T08:38:46.940Z,70.00
2022-09-15T08:41:27.035Z,70.88
2022-09-15T08:44:00.809Z,68.29
2022-09-15T08:46:41.448Z,69.61
2022-09-15T08:49:30.543Z,69.68
2022-09-15T08:52:11.025Z,70.60
2022-09-15T08:54:38.873Z,70.87
2022-09-15T08:57:10.226Z,69.21
2022-09-15T08:59:39.867Z,70.76
2022-09-15T09:02:12.383Z,70.73
2022-09-15T09:04:54.556Z,70.43
2022-09-15T09:07:51.002Z,70.87
2022-09-15T09:10:44.950Z,70.48
2022-09-15T09:13:32.042Z,71.04
2022-09-15T09:16:40.921Z,71.68
2022-09-15T09:19:32.520Z,71.28
2022-09-15T09:22:05.546Z,70.23
2022-09-15T09:24:41.545Z,70.65
2022-09-15T09:27:14.296Z,71.35
2022-09-15T09:29:49.485Z,70.01
2022-09-15T09:32:40.542Z,70.73
2022-09-15T09:35:18.796Z,71.86
2022-09-15T09:37:45.524Z,72.79
2022-09-15T09:40:15.789Z,71.79
2022-09-15T09:42:43.531Z,71.77
2022-09-15T09:45:15.593Z,71.37
2022-09-15T09:47:42.768Z,71.74
2022-09-15T09:50:32.357Z,72.25
2022-09-15T09:52:59.648Z,70.24
2022-09-15T09:55:28.146Z,70.88
2022-09-15T09:58:10.818Z,68.94
2022-09-15T10:00:39.434Z,70.33
2022-09-15T10:03:22.130Z,69.86
2022-09-15T10:06:15.854Z,70.02
2022-09-15T10:09:03.292Z,67.85
2022-09-15T10:11:43.942Z,67.22
2022-09-15T10:14:22.194Z,67.78
2022-09-15T10:17:10.544Z,67.84
2022-09-15T10:19:42.915Z,69.16
2022-09-15T10:22:10.177Z,69.42
2022-09-15T10:24:39.905Z,69.49
2022-09-15T10:27:08.476Z,69.51
2022-09-15T10:29:39.701Z,69.49
2022-09-15T10:32:31.611Z,69.27
2022-09-15T10:35:00.402Z,67.93
2022-09-15T10:37:45.593Z,68.13
2022-09-15T10:40:41.569Z,66.45
2022-09-15T10:43:24.711Z,66.01
2022-09-15T10:46:12.572Z,66.01
2022-09-15T10:48:46.032Z,63.84
2022-09-15T10:51:34.006Z,64.01
2022-09-15T10:54:14.801Z,62.16
2022-09-15T10:56:45.272Z,63.10
2022-09-15T10:59:24.356Z,64.20
2022-09-15T11:02:40.086Z,63.57
2022-09-15T11:05:22.947Z,62.04
2022-09-15T11:08:29.469Z,62.95
2022-09-15T11:11:24.621Z,61.77
2022-09-15T11:14:16.504Z,61.93
2022-09-15T11:17:11.721Z,61.86
2022-09-15T11:19:49.743Z,61.54
2022-09-15T11:22:25.279Z,60.33
2022-09-15T11:24:57.138Z,59.11
2022-09-15T11:27:29.945Z,58.50
2022-09-15T11:30:02.655Z,58.94
2022-09-15T11:32:42.941Z,57.69
2022-09-15T11:35:29.146Z,56.88
2022-09-15T11:38:03.647Z,56.69
2022-09-15T11:40:47.112Z,57.02
2022-09-15T11:43:18.805Z,56.52
2022-09-15T11:45:50.787Z,56.15
2022-09-15T11:48:28.272Z,56.56
2022-09-15T11:50:59.449Z,56.80
2022-09-15T11:53:31.978Z,58.15
2022-09-15T11:56:11.742Z,56.48
2022-09-15T11:58:41.116Z,56.69
2022-09-15T12:01:10.591Z,57.14
2022-09-15T12:03:56.120Z,55.86
2022-09-15T12:06:30.489Z,54.07
2022-09-15T12:09:02.648Z,51.40
2022-09-15T12:11:33.145Z,50.65
2022-09-15T12:14:02.124Z,49.00
2022-09-15T12:16:29.857Z,48.21
2022-09-15T12:19:06.038Z,46.58
2022-09-15T12:21:41.547Z,44.61
2022-09-15T12:24:38.061Z,47.07
2022-09-15T12:27:04.651Z,46.54
2022-09-15T12:29:41.828Z,46.79
2022-09-15T12:32:26.770Z,48.85
2022-09-15T12:35:17.658Z,49.72
2022-09-15T12:37:53.218Z,50.24
2022-09-15T12:40:38.716Z,50.94
2022-09-15T12:43:11.292Z,51.04
2022-09-15T12:45:39.041Z,52.05
2022-09-15T12:48:22.357Z,54.60
2022-09-15T12:50:54.817Z,58.14
2022-09-15T12:53:28.884Z,58.89
2022-09-15T12:55:57.229Z,59.45
2022-09-15T12:58:39.159Z,58.62
2022-09-15T13:01:28.869Z,59.56
2022-09-15T13:03:57.679Z,59.57
2022-09-15T13:06:34.238Z,60.53
2022-09-15T13:09:05.137Z,62.01
2022-09-15T13:11:36.864Z,61.78
2022-09-15T13:14:03.342Z,62.42
2022-09-15T13:16:51.703Z,62.16
2022-09-15T13:19:27.024Z,61.11
2022-09-15T13:21:58.977Z,61.59
2022-09-15T13:24:38.105Z,60.84
2022-09-15T13:27:07.456Z,59.46
2022-09-15T13:29:38.914Z,60.45
2022-09-15T13:32:32.783Z,59.08
2022-09-15T13:35:17.030Z,58.59
2022-09-15T13:38:22.059Z,58.52
2022-09-15T13:41:23.370Z,58.90
2022-09-15T13:43:49.806Z,57.03
2022-09-15T13:46:34.636Z,58.70
2022-09-15T13:49:19.637Z,59.01
2022-09-15T13:51:58.388Z,59.23
2022-09-15T13:54:25.078Z,59.63
2022-09-15T13:56:53.284Z,59.02
2022-09-15T13:59:25.448Z,55.83
2022-09-15T14:01:53.097Z,54.84
2022-09-15T14:04:25.394Z,54.69
2022-09-15T14:07:00.772Z,55.44
2022-09-15T14:09:31.398Z,55.34
2022-09-15T14:12:02.270Z,57.49
2022-09-15T14:14:37.934Z,57.12
2022-09-15T14:17:04.915Z,58.46
2022-09-15T14:19:38.940Z,60.38
2022-09-15T14:22:17.746Z,61.36
2022-09-15T14:24:44.584Z,60.34
2022-09-15T14:27:12.944Z,59.70
2022-09-15T14:29:41.321Z,59.72
2022-09-15T14:32:14.914Z,58.82
2022-09-15T14:34:42.533Z,55.19
2022-09-15T14:37:27.441Z,53.80
2022-09-15T14:39:56.642Z,54.62
2022-09-15T14:42:34.915Z,53.52
2022-09-15T14:48:02.065Z,50.96
2022-09-15T14:50:33.262Z,50.83
2022-09-15T14:53:16.307Z,52.74
2022-09-15T14:56:07.070Z,54.77
2022-09-15T14:58:43.288Z,51.73
2022-09-15T15:01:25.135Z,50.64
2022-09-15T15:04:12.386Z,49.92
2022-09-15T15:06:49.196Z,51.10
2022-09-15T15:09:30.268Z,53.81
2022-09-15T15:12:22.544Z,55.41
2022-09-15T15:14:49.309Z,55.99
2022-09-15T15:17:49.733Z,57.06
2022-09-15T15:20:22.874Z,58.70
2022-09-15T15:23:11.926Z,59.08
2022-09-15T15:25:38.636Z,60.61
2022-09-15T15:28:06.035Z,59.79
2022-09-15T15:30:36.048Z,60.29
2022-09-15T15:33:05.814Z,60.16
2022-09-15T15:35:33.981Z,58.68
2022-09-15T15:38:07.848Z,53.31
2022-09-15T15:40:37.494Z,50.72
2022-09-15T15:43:07.842Z,50.84
2022-09-15T15:45:36.010Z,52.53
2022-09-15T15:48:03.872Z,54.96
2022-09-15T15:50:32.718Z,57.63
2022-09-15T15:53:00.686Z,59.05
2022-09-15T15:55:37.279Z,59.37
2022-09-15T15:58:03.740Z,59.58
2022-09-15T16:00:56.468Z,58.22
2022-09-15T16:03:24.514Z,57.74
2022-09-15T16:05:53.700Z,59.32
2022-09-15T16:08:34.783Z,60.10
2022-09-15T16:11:02.644Z,61.44
2022-09-15T16:13:29.807Z,61.83
2022-09-15T16:15:58.193Z,63.90
2022-09-15T16:18:24.855Z,62.04
2022-09-15T16:20:51.802Z,62.46
2022-09-15T16:23:20.656Z,63.49
2022-09-15T16:26:05.493Z,63.21
2022-09-15T16:28:31.910Z,62.35
2022-09-15T16:30:58.869Z,61.58
2022-09-15T16:33:26.296Z,59.90
2022-09-15T16:36:03.819Z,60.76
2022-09-15T16:38:30.481Z,61.98
2022-09-15T16:40:57.243Z,62.47
2022-09-15T16:43:23.688Z,63.03
2022-09-15T16:45:51.351Z,63.77
2022-09-15T16:48:18.401Z,63.84
2022-09-15T16:50:56.068Z,64.88
2022-09-15T16:53:32.964Z,64.76
2022-09-15T16:55:59.438Z,64.87
2022-09-15T16:58:25.903Z,64.08
2022-09-15T17:00:52.653Z,64.86
2022-09-15T17:03:21.620Z,64.63
2022-09-15T17:05:52.227Z,64.23
2022-09-15T17:08:24.202Z,64.45
2022-09-15T17:10:52.770Z,64.27
2022-09-15T17:13:23.965Z,64.44
2022-09-15T17:15:54.162Z,64.10
2022-09-15T17:18:21.949Z,64.63
2022-09-15T17:20:49.848Z,64.53
2022-09-15T17:23:24.211Z,64.53
2022-09-15T17:25:53.007Z,65.19
2022-09-15T17:28:22.401Z,65.26
2022-09-15T17:30:56.128Z,65.90
2022-09-15T17:33:23.223Z,66.30
2022-09-15T17:35:49.943Z,66.68
2022-09-15T17:38:19.171Z,67.95
2022-09-15T17:40:47.621Z,67.95
2022-09-15T17:43:22.029Z,68.48
2022-09-15T17:45:49.790Z,68.86
2022-09-15T17:48:16.812Z,69.02
2022-09-15T17:50:45.099Z,69.59
2022-09-15T17:53:13.808Z,70.20
2022-09-15T17:55:40.494Z,69.48
2022-09-15T17:58:07.204Z,70.32
2022-09-15T18:00:36.909Z,70.00
2022-09-15T18:03:19.032Z,70.22
2022-09-15T18:05:45.575Z,70.09
2022-09-15T18:08:12.077Z,69.70
2022-09-15T18:10:38.566Z,70.09
2022-09-15T18:13:06.157Z,70.00
2022-09-15T18:15:34.708Z,70.45
2022-09-15T18:18:04.164Z,70.58
2022-09-15T18:20:32.656Z,70.72
2022-09-15T18:23:00.107Z,70.75
2022-09-15T18:25:36.845Z,70.81
2022-09-15T18:28:04.192Z,73.89
2022-09-15T18:30:36.353Z,78.13
2022-09-15T18:33:03.049Z,79.67
2022-09-15T18:35:29.500Z,81.13
2022-09-15T18:37:58.803Z,83.28
2022-09-15T18:40:26.982Z,83.78
2022-09-15T18:42:54.183Z,84.63
2022-09-15T18:45:20.843Z,85.74
2022-09-15T18:47:49.124Z,85.95
2022-09-15T18:50:17.142Z,86.68
2022-09-15T18:52:44.010Z,86.15
2022-09-15T18:55:15.136Z,86.27
2022-09-15T18:57:42.706Z,87.61
2022-09-15T19:00:14.951Z,88.29
2022-09-15T19:02:41.517Z,88.09
2022-09-15T19:05:10.987Z,88.32
2022-09-15T19:07:38.911Z,88.44
2022-09-15T19:10:07.323Z,87.59
2022-09-15T19:12:35.810Z,87.89
2022-09-15T19:15:10.673Z,87.99
2022-09-15T19:17:38.504Z,87.19
2022-09-15T19:20:07.019Z,87.88
2022-09-15T19:22:34.041Z,88.02
2022-09-15T19:25:00.476Z,88.96
2022-09-15T19:27:27.294Z,88.58
2022-09-15T19:29:53.718Z,88.64
2022-09-15T19:32:20.931Z,88.97
2022-09-15T19:34:47.600Z,88.75
2022-09-15T19:37:18.867Z,88.51
2022-09-15T19:39:46.486Z,88.72
2022-09-15T19:42:13.419Z,88.69
2022-09-15T19:44:41.436Z,88.54
2022-09-15T19:47:08.543Z,89.15
2022-09-15T19:49:35.457Z,89.30
2022-09-15T19:52:01.923Z,90.16
2022-09-15T19:54:30.454Z,90.25
2022-09-15T19:56:57.607Z,90.33
2022-09-15T19:59:28.772Z,89.78
2022-09-15T20:01:57.484Z,90.12
2022-09-15T20:04:24.124Z,90.52
2022-09-15T20:06:50.682Z,90.40
2022-09-15T20:09:17.669Z,90.79
2022-09-15T20:11:44.745Z,90.71
2022-09-15T20:14:11.255Z,90.65
2022-09-15T20:16:37.819Z,90.74
2022-09-15T20:19:04.891Z,90.52
2022-09-15T20:21:50.734Z,90.84
2022-09-15T20:24:18.983Z,91.01
2022-09-15T20:26:45.454Z,91.00
2022-09-15T20:29:12.396Z,90.48
2022-09-15T20:31:39.327Z,90.90
2022-09-15T20:34:05.995Z,90.24
2022-09-15T20:36:35.463Z,90.63
2022-09-15T20:39:03.956Z,90.91
2022-09-15T20:41:33.789Z,90.98
2022-09-15T20:44:00.368Z,90.46
2022-09-15T20:46:28.847Z,90.39
2022-09-15T20:48:55.286Z,90.12
2022-09-15T20:51:25.068Z,90.83
2022-09-15T20:53:54.647Z,90.57
2022-09-15T20:56:25.413Z,90.44
2022-09-15T20:58:53.829Z,90.74
2022-09-15T21:01:23.128Z,90.73
2022-09-15T21:03:50.289Z,90.72
2022-09-15T21:06:19.736Z,90.61
2022-09-15T21:08:47.797Z,90.31
2022-09-15T21:11:15.837Z,90.46
2022-09-15T21:13:43.440Z,90.96
2022-09-15T21:16:15.497Z,91.48
2022-09-15T21:18:43.497Z,91.47
2022-09-15T21:21:13.152Z,91.56
2022-09-15T21:23:42.498Z,91.98
2022-09-15T21:26:15.029Z,92.18
2022-09-15T21:28:43.410Z,91.89
2022-09-15T21:31:13.074Z,92.04
2022-09-15T21:33:39.880Z,92.24
2022-09-15T21:36:09.718Z,92.27
2022-09-15T21:38:38.210Z,92.54
2022-09-15T21:41:06.129Z,92.60
2022-09-15T21:43:35.937Z,92.64
2022-09-15T21:46:04.760Z,92.68
2022-09-15T21:48:33.137Z,92.50
2022-09-15T21:50:59.876Z,92.38
2022-09-15T21:53:27.362Z,92.95
2022-09-15T21:55:54.267Z,92.30
2022-09-15T21:58:26.126Z,92.87
2022-09-15T22:00:53.123Z,93.39
2022-09-15T22:03:19.700Z,93.18
2022-09-15T22:05:47.834Z,92.85
2022-09-15T22:08:16.219Z,93.28
2022-09-15T22:10:44.049Z,92.87
2022-09-15T22:13:11.366Z,92.99
2022-09-15T22:15:38.249Z,92.77
2022-09-15T22:18:04.924Z,93.01
2022-09-15T22:20:31.390Z,93.05
2022-09-15T22:23:01.289Z,92.85
2022-09-15T22:25:28.659Z,93.41
2022-09-15T22:27:55.212Z,93.54
2022-09-15T22:30:21.688Z,93.23
2022-09-15T22:32:48.099Z,93.34
2022-09-15T22:35:14.647Z,92.89
2022-09-15T22:37:41.155Z,92.47
2022-09-15T22:40:08.120Z,92.71
2022-09-15T22:42:34.845Z,93.20
2022-09-15T22:45:01.479Z,92.85
2022-09-15T22:47:27.909Z,93.38
2022-09-15T22:49:54.355Z,93.30
2022-09-15T22:52:21.324Z,93.00
2022-09-15T22:54:47.779Z,93.18
2022-09-15T22:57:14.184Z,93.27
2022-09-15T22:59:40.598Z,93.15
2022-09-15T23:02:07.087Z,92.67
2022-09-15T23:04:33.643Z,92.99
2022-09-15T23:07:00.047Z,92.92
2022-09-15T23:09:26.515Z,93.14
2022-09-15T23:11:53.041Z,93.38
2022-09-15T23:14:19.456Z,92.92
2022-09-15T23:16:46.000Z,93.26
2022-09-15T23:19:13.552Z,93.50
2022-09-15T23:21:40.152Z,93.76
2022-09-15T23:24:06.823Z,93.60
2022-09-15T23:26:33.339Z,93.14
2022-09-15T23:28:59.755Z,93.87
2022-09-15T23:31:26.318Z,92.98
2022-09-15T23:33:52.851Z,93.55
2022-09-15T23:36:19.792Z,94.04
2022-09-15T23:38:47.832Z,93.98
2022-09-15T23:41:15.931Z,93.44
2022-09-15T23:43:42.455Z,93.89
2022-09-15T23:46:09.238Z,93.64
2022-09-15T23:48:36.125Z,94.17
2022-09-15T23:51:03.049Z,94.27
2022-09-15T23:53:29.910Z,94.09
2022-09-15T23:55:56.685Z,94.87
2022-09-15T23:58:23.151Z,94.67
